sensor_id;sensor_type;location;lat;lon;timestamp;temperature;humidity
43665;DHT22;29263;48.172;11.484;2024-03-08T00:00:14;1.50;99.90
43665;DHT22;29263;48.172;11.484;2024-03-08T00:02:40;1.50;99.90
43665;DHT22;29263;48.172;11.484;2024-03-08T00:05:07;1.40;99.90
43665;DHT22;29263;48.172;11.484;2024-03-08T00:07:36;1.40;99.90
43665;DHT22;29263;48.172;11.484;2024-03-08T00:10:03;1.40;99.90
43665;DHT22;29263;48.172;11.484;2024-03-08T00:12:29;1.50;99.90
43665;DHT22;29263;48.172;11.484;2024-03-08T00:14:56;1.40;99.90
43665;DHT22;29263;48.172;11.484;2024-03-08T00:17:21;1.40;99.90
43665;DHT22;29263;48.172;11.484;2024-03-08T00:19:50;1.40;99.90
43665;DHT22;29263;48.172;11.484;2024-03-08T00:22:17;1.30;99.90
43665;DHT22;29263;48.172;11.484;2024-03-08T00:24:43;1.30;99.90
43665;DHT22;29263;48.172;11.484;2024-03-08T00:27:09;1.30;99.90
43665;DHT22;29263;48.172;11.484;2024-03-08T00:29:34;1.30;99.90
43665;DHT22;29263;48.172;11.484;2024-03-08T00:32:00;1.30;99.90
43665;DHT22;29263;48.172;11.484;2024-03-08T00:34:26;1.30;99.90
43665;DHT22;29263;48.172;11.484;2024-03-08T00:36:52;1.30;99.90
43665;DHT22;29263;48.172;11.484;2024-03-08T00:39:18;1.30;99.90
43665;DHT22;29263;48.172;11.484;2024-03-08T00:41:46;1.20;99.90
43665;DHT22;29263;48.172;11.484;2024-03-08T00:44:12;1.20;99.90
43665;DHT22;29263;48.172;11.484;2024-03-08T00:46:37;1.30;99.90
43665;DHT22;29263;48.172;11.484;2024-03-08T00:49:03;1.20;99.90
43665;DHT22;29263;48.172;11.484;2024-03-08T00:51:29;1.20;99.90
43665;DHT22;29263;48.172;11.484;2024-03-08T00:53:55;1.20;99.90
43665;DHT22;29263;48.172;11.484;2024-03-08T00:56:20;1.20;99.90
43665;DHT22;29263;48.172;11.484;2024-03-08T00:58:46;1.10;99.90
43665;DHT22;29263;48.172;11.484;2024-03-08T01:01:13;1.20;99.90
43665;DHT22;29263;48.172;11.484;2024-03-08T01:03:43;1.10;99.90
43665;DHT22;29263;48.172;11.484;2024-03-08T01:06:08;1.10;99.90
43665;DHT22;29263;48.172;11.484;2024-03-08T01:08:34;1.20;99.90
43665;DHT22;29263;48.172;11.484;2024-03-08T01:11:00;1.20;99.90
43665;DHT22;29263;48.172;11.484;2024-03-08T01:13:25;1.10;99.90
43665;DHT22;29263;48.172;11.484;2024-03-08T01:15:51;1.10;99.90
43665;DHT22;29263;48.172;11.484;2024-03-08T01:18:17;1.10;99.90
43665;DHT22;29263;48.172;11.484;2024-03-08T01:20:42;1.10;99.90
43665;DHT22;29263;48.172;11.484;2024-03-08T01:23:08;1.00;99.90
43665;DHT22;29263;48.172;11.484;2024-03-08T01:25:34;1.00;99.90
43665;DHT22;29263;48.172;11.484;2024-03-08T01:27:59;1.00;99.90
43665;DHT22;29263;48.172;11.484;2024-03-08T01:30:25;1.00;99.90
43665;DHT22;29263;48.172;11.484;2024-03-08T01:32:51;1.00;99.90
43665;DHT22;29263;48.172;11.484;2024-03-08T01:35:16;0.90;99.90
43665;DHT22;29263;48.172;11.484;2024-03-08T01:37:43;0.90;99.90
43665;DHT22;29263;48.172;11.484;2024-03-08T01:40:09;0.90;99.90
43665;DHT22;29263;48.172;11.484;2024-03-08T01:42:35;0.90;99.90
43665;DHT22;29263;48.172;11.484;2024-03-08T01:45:07;0.90;99.90
43665;DHT22;29263;48.172;11.484;2024-03-08T01:47:32;0.90;99.90
43665;DHT22;29263;48.172;11.484;2024-03-08T01:49:59;0.90;99.90
43665;DHT22;29263;48.172;11.484;2024-03-08T01:52:28;0.90;99.90
43665;DHT22;29263;48.172;11.484;2024-03-08T01:54:59;0.90;99.90
43665;DHT22;29263;48.172;11.484;2024-03-08T01:57:26;0.90;99.90
43665;DHT22;29263;48.172;11.484;2024-03-08T01:59:53;0.90;99.90
43665;DHT22;29263;48.172;11.484;2024-03-08T02:02:22;0.90;99.90
43665;DHT22;29263;48.172;11.484;2024-03-08T02:04:48;0.90;99.90
43665;DHT22;29263;48.172;11.484;2024-03-08T02:07:14;0.90;99.90
43665;DHT22;29263;48.172;11.484;2024-03-08T02:09:39;0.90;99.90
43665;DHT22;29263;48.172;11.484;2024-03-08T02:12:06;0.90;99.90
43665;DHT22;29263;48.172;11.484;2024-03-08T02:14:33;0.80;99.90
43665;DHT22;29263;48.172;11.484;2024-03-08T02:17:02;0.80;99.90
43665;DHT22;29263;48.172;11.484;2024-03-08T02:19:27;0.80;99.90
43665;DHT22;29263;48.172;11.484;2024-03-08T02:21:53;0.70;99.90
43665;DHT22;29263;48.172;11.484;2024-03-08T02:24:19;0.70;99.90
43665;DHT22;29263;48.172;11.484;2024-03-08T02:26:45;0.70;99.90
43665;DHT22;29263;48.172;11.484;2024-03-08T02:29:10;0.60;99.90
43665;DHT22;29263;48.172;11.484;2024-03-08T02:31:36;0.70;99.90
43665;DHT22;29263;48.172;11.484;2024-03-08T02:34:01;0.70;99.90
43665;DHT22;29263;48.172;11.484;2024-03-08T02:36:27;0.70;99.90
43665;DHT22;29263;48.172;11.484;2024-03-08T02:38:53;0.70;99.90
43665;DHT22;29263;48.172;11.484;2024-03-08T02:41:20;0.70;99.90
43665;DHT22;29263;48.172;11.484;2024-03-08T02:43:46;0.60;99.90
43665;DHT22;29263;48.172;11.484;2024-03-08T02:46:12;0.60;99.90
43665;DHT22;29263;48.172;11.484;2024-03-08T02:48:37;0.60;99.90
43665;DHT22;29263;48.172;11.484;2024-03-08T02:51:03;0.60;99.90
43665;DHT22;29263;48.172;11.484;2024-03-08T02:53:29;0.60;99.90
43665;DHT22;29263;48.172;11.484;2024-03-08T02:55:54;0.50;99.90
43665;DHT22;29263;48.172;11.484;2024-03-08T02:58:20;0.50;99.90
43665;DHT22;29263;48.172;11.484;2024-03-08T03:00:46;0.50;99.90
43665;DHT22;29263;48.172;11.484;2024-03-08T03:03:11;0.50;99.90
43665;DHT22;29263;48.172;11.484;2024-03-08T03:05:37;0.50;99.90
43665;DHT22;29263;48.172;11.484;2024-03-08T03:08:03;0.50;99.90
43665;DHT22;29263;48.172;11.484;2024-03-08T03:10:34;0.50;99.90
43665;DHT22;29263;48.172;11.484;2024-03-08T03:13:00;0.50;99.90
43665;DHT22;29263;48.172;11.484;2024-03-08T03:15:25;0.50;99.90
43665;DHT22;29263;48.172;11.484;2024-03-08T03:17:51;0.40;99.90
43665;DHT22;29263;48.172;11.484;2024-03-08T03:20:17;0.40;99.90
43665;DHT22;29263;48.172;11.484;2024-03-08T03:22:51;0.40;99.90
43665;DHT22;29263;48.172;11.484;2024-03-08T03:25:20;0.40;99.90
43665;DHT22;29263;48.172;11.484;2024-03-08T03:27:53;0.40;99.90
43665;DHT22;29263;48.172;11.484;2024-03-08T03:30:22;0.40;99.90
43665;DHT22;29263;48.172;11.484;2024-03-08T03:32:51;0.30;99.90
43665;DHT22;29263;48.172;11.484;2024-03-08T03:35:20;0.30;99.90
43665;DHT22;29263;48.172;11.484;2024-03-08T03:37:46;0.30;99.90
43665;DHT22;29263;48.172;11.484;2024-03-08T03:40:36;0.30;99.90
43665;DHT22;29263;48.172;11.484;2024-03-08T03:43:02;0.20;99.90
43665;DHT22;29263;48.172;11.484;2024-03-08T03:45:28;0.20;99.90
43665;DHT22;29263;48.172;11.484;2024-03-08T03:47:54;0.20;99.90
43665;DHT22;29263;48.172;11.484;2024-03-08T03:50:21;0.20;99.90
43665;DHT22;29263;48.172;11.484;2024-03-08T03:52:47;0.20;99.90
43665;DHT22;29263;48.172;11.484;2024-03-08T03:55:13;0.20;99.90
43665;DHT22;29263;48.172;11.484;2024-03-08T03:57:39;0.20;99.90
43665;DHT22;29263;48.172;11.484;2024-03-08T04:00:06;0.20;99.90
43665;DHT22;29263;48.172;11.484;2024-03-08T04:02:38;0.20;99.90
43665;DHT22;29263;48.172;11.484;2024-03-08T04:05:05;0.30;99.90
43665;DHT22;29263;48.172;11.484;2024-03-08T04:07:31;0.30;99.90
43665;DHT22;29263;48.172;11.484;2024-03-08T04:09:57;0.30;99.90
43665;DHT22;29263;48.172;11.484;2024-03-08T04:12:22;0.30;99.90
43665;DHT22;29263;48.172;11.484;2024-03-08T04:14:48;0.30;99.90
43665;DHT22;29263;48.172;11.484;2024-03-08T04:17:14;0.30;99.90
43665;DHT22;29263;48.172;11.484;2024-03-08T04:19:39;0.30;99.90
43665;DHT22;29263;48.172;11.484;2024-03-08T04:22:06;0.30;99.90
43665;DHT22;29263;48.172;11.484;2024-03-08T04:24:33;0.30;99.90
43665;DHT22;29263;48.172;11.484;2024-03-08T04:26:58;0.30;99.90
43665;DHT22;29263;48.172;11.484;2024-03-08T04:29:24;0.30;99.90
43665;DHT22;29263;48.172;11.484;2024-03-08T04:31:50;0.30;99.90
43665;DHT22;29263;48.172;11.484;2024-03-08T04:34:22;0.30;99.90
43665;DHT22;29263;48.172;11.484;2024-03-08T04:36:48;0.30;99.90
43665;DHT22;29263;48.172;11.484;2024-03-08T04:39:14;0.30;99.90
43665;DHT22;29263;48.172;11.484;2024-03-08T04:41:41;0.20;99.90
43665;DHT22;29263;48.172;11.484;2024-03-08T04:44:11;0.20;99.90
43665;DHT22;29263;48.172;11.484;2024-03-08T04:46:38;0.20;99.90
43665;DHT22;29263;48.172;11.484;2024-03-08T04:49:03;0.20;99.90
43665;DHT22;29263;48.172;11.484;2024-03-08T04:51:29;0.20;99.90
43665;DHT22;29263;48.172;11.484;2024-03-08T04:53:55;0.10;99.90
43665;DHT22;29263;48.172;11.484;2024-03-08T04:56:22;0.10;99.90
43665;DHT22;29263;48.172;11.484;2024-03-08T04:58:48;0.10;99.90
43665;DHT22;29263;48.172;11.484;2024-03-08T05:01:14;0.20;99.90
43665;DHT22;29263;48.172;11.484;2024-03-08T05:03:39;0.20;99.90
43665;DHT22;29263;48.172;11.484;2024-03-08T05:06:05;0.20;99.90
43665;DHT22;29263;48.172;11.484;2024-03-08T05:08:30;0.30;99.90
43665;DHT22;29263;48.172;11.484;2024-03-08T05:10:56;0.30;99.90
43665;DHT22;29263;48.172;11.484;2024-03-08T05:13:22;0.40;99.90
43665;DHT22;29263;48.172;11.484;2024-03-08T05:15:49;0.40;99.90
43665;DHT22;29263;48.172;11.484;2024-03-08T05:18:16;0.40;99.90
43665;DHT22;29263;48.172;11.484;2024-03-08T05:20:41;0.40;99.90
43665;DHT22;29263;48.172;11.484;2024-03-08T05:23:07;0.50;99.90
43665;DHT22;29263;48.172;11.484;2024-03-08T05:25:33;0.50;99.90
43665;DHT22;29263;48.172;11.484;2024-03-08T05:27:59;0.40;99.90
43665;DHT22;29263;48.172;11.484;2024-03-08T05:30:25;0.50;99.90
43665;DHT22;29263;48.172;11.484;2024-03-08T05:32:50;0.40;99.90
43665;DHT22;29263;48.172;11.484;2024-03-08T05:35:16;0.50;99.90
43665;DHT22;29263;48.172;11.484;2024-03-08T05:37:42;0.50;99.90
43665;DHT22;29263;48.172;11.484;2024-03-08T05:40:08;0.50;99.90
43665;DHT22;29263;48.172;11.484;2024-03-08T05:42:37;0.60;99.90
43665;DHT22;29263;48.172;11.484;2024-03-08T05:45:04;0.60;99.90
43665;DHT22;29263;48.172;11.484;2024-03-08T05:47:29;0.60;99.90
43665;DHT22;29263;48.172;11.484;2024-03-08T05:49:55;0.60;99.90
43665;DHT22;29263;48.172;11.484;2024-03-08T05:52:20;0.60;99.90
43665;DHT22;29263;48.172;11.484;2024-03-08T05:54:46;0.60;99.90
43665;DHT22;29263;48.172;11.484;2024-03-08T05:57:12;0.60;99.90
43665;DHT22;29263;48.172;11.484;2024-03-08T05:59:39;0.60;99.90
43665;DHT22;29263;48.172;11.484;2024-03-08T06:02:05;0.70;99.90
43665;DHT22;29263;48.172;11.484;2024-03-08T06:04:31;0.70;99.90
43665;DHT22;29263;48.172;11.484;2024-03-08T06:06:56;0.70;99.90
43665;DHT22;29263;48.172;11.484;2024-03-08T06:09:26;0.70;99.90
43665;DHT22;29263;48.172;11.484;2024-03-08T06:11:52;0.70;99.90
43665;DHT22;29263;48.172;11.484;2024-03-08T06:14:19;0.70;99.90
43665;DHT22;29263;48.172;11.484;2024-03-08T06:16:45;0.70;99.90
43665;DHT22;29263;48.172;11.484;2024-03-08T06:19:12;0.80;99.90
43665;DHT22;29263;48.172;11.484;2024-03-08T06:21:38;0.80;99.90
43665;DHT22;29263;48.172;11.484;2024-03-08T06:24:04;0.80;99.90
43665;DHT22;29263;48.172;11.484;2024-03-08T06:26:30;0.90;99.90
43665;DHT22;29263;48.172;11.484;2024-03-08T06:28:57;0.90;99.90
43665;DHT22;29263;48.172;11.484;2024-03-08T06:31:22;0.90;99.90
43665;DHT22;29263;48.172;11.484;2024-03-08T06:33:48;1.00;99.90
43665;DHT22;29263;48.172;11.484;2024-03-08T06:36:19;1.00;99.90
43665;DHT22;29263;48.172;11.484;2024-03-08T06:38:50;0.90;99.90
43665;DHT22;29263;48.172;11.484;2024-03-08T06:41:16;0.90;99.90
43665;DHT22;29263;48.172;11.484;2024-03-08T06:43:45;1.00;99.90
43665;DHT22;29263;48.172;11.484;2024-03-08T06:46:11;1.00;99.90
43665;DHT22;29263;48.172;11.484;2024-03-08T06:48:39;1.00;99.90
43665;DHT22;29263;48.172;11.484;2024-03-08T06:51:05;1.10;99.90
43665;DHT22;29263;48.172;11.484;2024-03-08T06:53:31;1.10;99.90
43665;DHT22;29263;48.172;11.484;2024-03-08T06:55:57;1.20;99.90
43665;DHT22;29263;48.172;11.484;2024-03-08T06:58:23;1.20;99.90
43665;DHT22;29263;48.172;11.484;2024-03-08T07:00:49;1.30;99.90
43665;DHT22;29263;48.172;11.484;2024-03-08T07:03:17;1.30;99.90
43665;DHT22;29263;48.172;11.484;2024-03-08T07:05:43;1.30;99.90
43665;DHT22;29263;48.172;11.484;2024-03-08T07:08:09;1.40;99.90
43665;DHT22;29263;48.172;11.484;2024-03-08T07:10:35;1.40;99.90
43665;DHT22;29263;48.172;11.484;2024-03-08T07:13:02;1.40;99.90
43665;DHT22;29263;48.172;11.484;2024-03-08T07:15:28;1.50;99.90
43665;DHT22;29263;48.172;11.484;2024-03-08T07:17:54;1.60;99.90
43665;DHT22;29263;48.172;11.484;2024-03-08T07:20:20;1.60;99.90
43665;DHT22;29263;48.172;11.484;2024-03-08T07:22:47;1.70;99.90
43665;DHT22;29263;48.172;11.484;2024-03-08T07:25:19;1.70;99.90
43665;DHT22;29263;48.172;11.484;2024-03-08T07:27:52;1.70;99.90
43665;DHT22;29263;48.172;11.484;2024-03-08T07:30:19;1.80;99.90
43665;DHT22;29263;48.172;11.484;2024-03-08T07:33:04;1.80;99.90
43665;DHT22;29263;48.172;11.484;2024-03-08T07:35:32;1.80;99.90
43665;DHT22;29263;48.172;11.484;2024-03-08T07:37:57;1.90;99.90
43665;DHT22;29263;48.172;11.484;2024-03-08T07:40:25;2.00;99.90
43665;DHT22;29263;48.172;11.484;2024-03-08T07:42:52;2.00;99.90
43665;DHT22;29263;48.172;11.484;2024-03-08T07:45:17;2.00;99.90
43665;DHT22;29263;48.172;11.484;2024-03-08T07:47:43;2.10;99.90
43665;DHT22;29263;48.172;11.484;2024-03-08T07:50:09;2.10;99.90
43665;DHT22;29263;48.172;11.484;2024-03-08T07:52:35;2.20;99.90
43665;DHT22;29263;48.172;11.484;2024-03-08T07:55:02;2.30;99.90
43665;DHT22;29263;48.172;11.484;2024-03-08T07:57:29;2.30;99.90
43665;DHT22;29263;48.172;11.484;2024-03-08T07:59:55;2.40;99.90
43665;DHT22;29263;48.172;11.484;2024-03-08T08:02:21;2.50;99.90
43665;DHT22;29263;48.172;11.484;2024-03-08T08:04:46;2.50;99.90
43665;DHT22;29263;48.172;11.484;2024-03-08T08:07:12;2.60;99.90
43665;DHT22;29263;48.172;11.484;2024-03-08T08:09:40;2.60;99.90
43665;DHT22;29263;48.172;11.484;2024-03-08T08:12:06;2.60;99.90
43665;DHT22;29263;48.172;11.484;2024-03-08T08:14:32;2.80;99.90
43665;DHT22;29263;48.172;11.484;2024-03-08T08:16:58;2.90;99.90
43665;DHT22;29263;48.172;11.484;2024-03-08T08:19:28;2.90;99.90
43665;DHT22;29263;48.172;11.484;2024-03-08T08:21:54;3.00;99.90
43665;DHT22;29263;48.172;11.484;2024-03-08T08:24:19;3.00;99.90
43665;DHT22;29263;48.172;11.484;2024-03-08T08:26:47;3.10;99.90
43665;DHT22;29263;48.172;11.484;2024-03-08T08:29:12;3.10;99.90
43665;DHT22;29263;48.172;11.484;2024-03-08T08:31:38;3.20;99.90
43665;DHT22;29263;48.172;11.484;2024-03-08T08:34:04;3.30;99.90
43665;DHT22;29263;48.172;11.484;2024-03-08T08:36:30;3.30;99.90
43665;DHT22;29263;48.172;11.484;2024-03-08T08:38:56;3.30;99.90
43665;DHT22;29263;48.172;11.484;2024-03-08T08:41:23;3.30;99.90
43665;DHT22;29263;48.172;11.484;2024-03-08T08:43:49;3.30;99.90
43665;DHT22;29263;48.172;11.484;2024-03-08T08:46:18;3.30;99.90
43665;DHT22;29263;48.172;11.484;2024-03-08T08:48:44;3.40;99.90
43665;DHT22;29263;48.172;11.484;2024-03-08T08:51:11;3.40;99.90
43665;DHT22;29263;48.172;11.484;2024-03-08T08:53:41;3.50;99.90
43665;DHT22;29263;48.172;11.484;2024-03-08T08:56:08;3.60;99.90
43665;DHT22;29263;48.172;11.484;2024-03-08T08:58:34;3.70;99.90
43665;DHT22;29263;48.172;11.484;2024-03-08T09:01:00;3.80;99.90
43665;DHT22;29263;48.172;11.484;2024-03-08T09:03:27;4.00;99.90
43665;DHT22;29263;48.172;11.484;2024-03-08T09:05:53;4.10;99.90
43665;DHT22;29263;48.172;11.484;2024-03-08T09:08:19;4.20;99.90
43665;DHT22;29263;48.172;11.484;2024-03-08T09:10:45;4.20;99.90
43665;DHT22;29263;48.172;11.484;2024-03-08T09:13:12;4.30;99.90
43665;DHT22;29263;48.172;11.484;2024-03-08T09:15:38;4.40;99.90
43665;DHT22;29263;48.172;11.484;2024-03-08T09:18:06;4.50;99.90
43665;DHT22;29263;48.172;11.484;2024-03-08T09:20:31;4.60;99.90
43665;DHT22;29263;48.172;11.484;2024-03-08T09:22:57;4.70;99.90
43665;DHT22;29263;48.172;11.484;2024-03-08T09:25:23;4.70;99.90
43665;DHT22;29263;48.172;11.484;2024-03-08T09:27:49;4.70;99.90
43665;DHT22;29263;48.172;11.484;2024-03-08T09:30:15;4.70;99.90
43665;DHT22;29263;48.172;11.484;2024-03-08T09:32:41;4.80;99.90
43665;DHT22;29263;48.172;11.484;2024-03-08T09:35:09;4.80;99.90
43665;DHT22;29263;48.172;11.484;2024-03-08T09:37:34;4.90;99.90
43665;DHT22;29263;48.172;11.484;2024-03-08T09:40:00;4.90;99.90
43665;DHT22;29263;48.172;11.484;2024-03-08T09:42:30;5.00;99.90
43665;DHT22;29263;48.172;11.484;2024-03-08T09:44:57;5.00;99.90
43665;DHT22;29263;48.172;11.484;2024-03-08T09:47:25;5.10;99.90
43665;DHT22;29263;48.172;11.484;2024-03-08T09:49:54;5.00;99.90
43665;DHT22;29263;48.172;11.484;2024-03-08T09:52:20;5.10;99.90
43665;DHT22;29263;48.172;11.484;2024-03-08T09:54:46;5.20;99.90
43665;DHT22;29263;48.172;11.484;2024-03-08T09:57:11;5.30;99.90
43665;DHT22;29263;48.172;11.484;2024-03-08T09:59:37;5.40;99.90
43665;DHT22;29263;48.172;11.484;2024-03-08T10:02:03;5.40;99.90
43665;DHT22;29263;48.172;11.484;2024-03-08T10:04:30;5.50;99.90
43665;DHT22;29263;48.172;11.484;2024-03-08T10:07:00;5.60;99.90
43665;DHT22;29263;48.172;11.484;2024-03-08T10:09:25;5.70;99.90
43665;DHT22;29263;48.172;11.484;2024-03-08T10:11:59;5.80;99.90
43665;DHT22;29263;48.172;11.484;2024-03-08T10:14:25;5.80;99.90
43665;DHT22;29263;48.172;11.484;2024-03-08T10:16:54;5.80;99.90
43665;DHT22;29263;48.172;11.484;2024-03-08T10:19:20;5.80;99.90
43665;DHT22;29263;48.172;11.484;2024-03-08T10:21:49;5.90;99.90
43665;DHT22;29263;48.172;11.484;2024-03-08T10:24:15;6.00;99.90
43665;DHT22;29263;48.172;11.484;2024-03-08T10:26:41;6.00;99.90
43665;DHT22;29263;48.172;11.484;2024-03-08T10:29:09;6.10;99.90
43665;DHT22;29263;48.172;11.484;2024-03-08T10:31:34;6.20;99.90
43665;DHT22;29263;48.172;11.484;2024-03-08T10:34:01;6.40;99.90
43665;DHT22;29263;48.172;11.484;2024-03-08T10:36:28;6.50;99.90
43665;DHT22;29263;48.172;11.484;2024-03-08T10:38:54;6.50;99.90
43665;DHT22;29263;48.172;11.484;2024-03-08T10:41:23;6.60;99.90
43665;DHT22;29263;48.172;11.484;2024-03-08T10:44:14;6.70;99.90
43665;DHT22;29263;48.172;11.484;2024-03-08T10:47:02;6.80;99.90
43665;DHT22;29263;48.172;11.484;2024-03-08T10:52:32;7.00;99.90
43665;DHT22;29263;48.172;11.484;2024-03-08T10:54:59;7.20;99.90
43665;DHT22;29263;48.172;11.484;2024-03-08T10:57:27;7.30;99.90
43665;DHT22;29263;48.172;11.484;2024-03-08T10:59:53;7.40;99.90
43665;DHT22;29263;48.172;11.484;2024-03-08T11:02:19;7.50;99.90
43665;DHT22;29263;48.172;11.484;2024-03-08T11:04:49;7.50;99.90
43665;DHT22;29263;48.172;11.484;2024-03-08T11:07:15;7.60;99.90
43665;DHT22;29263;48.172;11.484;2024-03-08T11:09:43;7.60;99.90
43665;DHT22;29263;48.172;11.484;2024-03-08T11:12:27;7.80;99.90
43665;DHT22;29263;48.172;11.484;2024-03-08T11:15:01;7.90;99.90
43665;DHT22;29263;48.172;11.484;2024-03-08T11:19:58;8.20;99.90
43665;DHT22;29263;48.172;11.484;2024-03-08T11:22:28;8.30;99.90
43665;DHT22;29263;48.172;11.484;2024-03-08T11:25:02;8.30;99.90
43665;DHT22;29263;48.172;11.484;2024-03-08T11:27:31;8.40;99.90
43665;DHT22;29263;48.172;11.484;2024-03-08T11:30:05;8.50;99.90
43665;DHT22;29263;48.172;11.484;2024-03-08T11:32:37;8.60;99.90
43665;DHT22;29263;48.172;11.484;2024-03-08T11:35:07;8.70;99.90
43665;DHT22;29263;48.172;11.484;2024-03-08T11:37:44;8.80;98.80
43665;DHT22;29263;48.172;11.484;2024-03-08T11:40:13;8.90;98.60
43665;DHT22;29263;48.172;11.484;2024-03-08T11:42:48;9.00;98.50
43665;DHT22;29263;48.172;11.484;2024-03-08T11:45:15;9.00;98.00
43665;DHT22;29263;48.172;11.484;2024-03-08T11:47:43;9.00;97.70
43665;DHT22;29263;48.172;11.484;2024-03-08T11:50:15;9.10;97.60
43665;DHT22;29263;48.172;11.484;2024-03-08T11:52:40;9.10;97.00
43665;DHT22;29263;48.172;11.484;2024-03-08T11:55:08;9.10;96.90
43665;DHT22;29263;48.172;11.484;2024-03-08T11:57:34;9.10;96.70
43665;DHT22;29263;48.172;11.484;2024-03-08T12:00:00;9.10;96.80
43665;DHT22;29263;48.172;11.484;2024-03-08T12:02:35;9.20;96.90
43665;DHT22;29263;48.172;11.484;2024-03-08T12:05:06;9.30;97.00
43665;DHT22;29263;48.172;11.484;2024-03-08T12:07:32;9.30;96.80
43665;DHT22;29263;48.172;11.484;2024-03-08T12:10:17;9.40;96.20
43665;DHT22;29263;48.172;11.484;2024-03-08T12:12:47;9.50;96.50
43665;DHT22;29263;48.172;11.484;2024-03-08T12:15:15;9.50;95.50
43665;DHT22;29263;48.172;11.484;2024-03-08T12:17:41;9.50;96.10
43665;DHT22;29263;48.172;11.484;2024-03-08T12:20:28;9.60;95.80
43665;DHT22;29263;48.172;11.484;2024-03-08T12:22:57;9.70;95.20
43665;DHT22;29263;48.172;11.484;2024-03-08T12:25:34;9.70;95.10
43665;DHT22;29263;48.172;11.484;2024-03-08T12:28:10;9.70;95.30
43665;DHT22;29263;48.172;11.484;2024-03-08T12:30:47;9.60;95.40
43665;DHT22;29263;48.172;11.484;2024-03-08T12:33:13;9.70;95.20
43665;DHT22;29263;48.172;11.484;2024-03-08T12:35:39;9.80;95.40
43665;DHT22;29263;48.172;11.484;2024-03-08T12:38:05;9.90;94.80
43665;DHT22;29263;48.172;11.484;2024-03-08T12:40:34;9.90;94.80
43665;DHT22;29263;48.172;11.484;2024-03-08T12:43:06;10.10;94.10
43665;DHT22;29263;48.172;11.484;2024-03-08T12:45:32;10.10;93.50
43665;DHT22;29263;48.172;11.484;2024-03-08T12:47:58;10.20;94.40
43665;DHT22;29263;48.172;11.484;2024-03-08T12:50:25;10.30;94.80
43665;DHT22;29263;48.172;11.484;2024-03-08T12:52:51;10.30;93.10
43665;DHT22;29263;48.172;11.484;2024-03-08T12:55:18;10.40;93.50
43665;DHT22;29263;48.172;11.484;2024-03-08T12:57:44;10.50;92.60
43665;DHT22;29263;48.172;11.484;2024-03-08T13:00:11;10.70;92.40
43665;DHT22;29263;48.172;11.484;2024-03-08T13:02:45;10.70;92.70
43665;DHT22;29263;48.172;11.484;2024-03-08T13:05:10;10.90;92.60
43665;DHT22;29263;48.172;11.484;2024-03-08T13:07:37;10.90;91.10
43665;DHT22;29263;48.172;11.484;2024-03-08T13:10:03;10.90;90.80
43665;DHT22;29263;48.172;11.484;2024-03-08T13:12:30;10.90;90.70
43665;DHT22;29263;48.172;11.484;2024-03-08T13:14:55;11.00;89.70
43665;DHT22;29263;48.172;11.484;2024-03-08T13:17:22;11.00;90.00
43665;DHT22;29263;48.172;11.484;2024-03-08T13:19:48;11.10;89.60
43665;DHT22;29263;48.172;11.484;2024-03-08T13:22:14;11.20;88.40
43665;DHT22;29263;48.172;11.484;2024-03-08T13:24:44;11.40;89.40
43665;DHT22;29263;48.172;11.484;2024-03-08T13:27:11;11.50;89.70
43665;DHT22;29263;48.172;11.484;2024-03-08T13:29:46;11.70;88.10
43665;DHT22;29263;48.172;11.484;2024-03-08T13:32:12;11.80;87.70
43665;DHT22;29263;48.172;11.484;2024-03-08T13:34:42;12.00;86.20
43665;DHT22;29263;48.172;11.484;2024-03-08T13:37:07;12.20;85.20
43665;DHT22;29263;48.172;11.484;2024-03-08T13:39:35;12.30;83.40
43665;DHT22;29263;48.172;11.484;2024-03-08T13:42:16;12.30;81.90
43665;DHT22;29263;48.172;11.484;2024-03-08T13:44:45;12.40;81.90
43665;DHT22;29263;48.172;11.484;2024-03-08T13:47:15;12.60;84.10
43665;DHT22;29263;48.172;11.484;2024-03-08T13:49:41;12.90;80.50
43665;DHT22;29263;48.172;11.484;2024-03-08T13:52:09;13.00;80.20
43665;DHT22;29263;48.172;11.484;2024-03-08T13:54:35;13.00;78.90
43665;DHT22;29263;48.172;11.484;2024-03-08T13:57:01;12.90;81.80
43665;DHT22;29263;48.172;11.484;2024-03-08T13:59:30;13.10;79.10
43665;DHT22;29263;48.172;11.484;2024-03-08T14:01:56;13.30;78.50
43665;DHT22;29263;48.172;11.484;2024-03-08T14:04:23;13.30;77.80
43665;DHT22;29263;48.172;11.484;2024-03-08T14:06:49;13.60;76.40
43665;DHT22;29263;48.172;11.484;2024-03-08T14:09:15;14.00;73.90
43665;DHT22;29263;48.172;11.484;2024-03-08T14:11:43;14.40;73.00
43665;DHT22;29263;48.172;11.484;2024-03-08T14:14:11;14.50;71.50
43665;DHT22;29263;48.172;11.484;2024-03-08T14:16:40;15.00;69.70
43665;DHT22;29263;48.172;11.484;2024-03-08T14:19:06;15.70;67.70
43665;DHT22;29263;48.172;11.484;2024-03-08T14:21:32;16.20;64.90
43665;DHT22;29263;48.172;11.484;2024-03-08T14:23:58;16.70;62.50
43665;DHT22;29263;48.172;11.484;2024-03-08T14:26:24;17.00;61.40
43665;DHT22;29263;48.172;11.484;2024-03-08T14:28:50;17.90;59.90
43665;DHT22;29263;48.172;11.484;2024-03-08T14:31:22;18.50;57.10
43665;DHT22;29263;48.172;11.484;2024-03-08T14:33:51;19.10;56.30
43665;DHT22;29263;48.172;11.484;2024-03-08T14:36:18;19.70;53.60
43665;DHT22;29263;48.172;11.484;2024-03-08T14:38:46;20.10;52.50
43665;DHT22;29263;48.172;11.484;2024-03-08T14:41:13;20.40;51.70
43665;DHT22;29263;48.172;11.484;2024-03-08T14:43:42;20.70;51.00
43665;DHT22;29263;48.172;11.484;2024-03-08T14:46:10;20.50;49.10
43665;DHT22;29263;48.172;11.484;2024-03-08T14:48:39;20.60;49.90
43665;DHT22;29263;48.172;11.484;2024-03-08T14:51:06;20.90;48.90
43665;DHT22;29263;48.172;11.484;2024-03-08T14:53:35;21.20;48.40
43665;DHT22;29263;48.172;11.484;2024-03-08T14:56:01;20.90;48.10
43665;DHT22;29263;48.172;11.484;2024-03-08T14:58:26;20.30;49.10
43665;DHT22;29263;48.172;11.484;2024-03-08T15:00:53;20.00;50.50
43665;DHT22;29263;48.172;11.484;2024-03-08T15:03:21;20.20;49.10
43665;DHT22;29263;48.172;11.484;2024-03-08T15:05:50;20.50;48.20
43665;DHT22;29263;48.172;11.484;2024-03-08T15:08:16;20.40;48.30
43665;DHT22;29263;48.172;11.484;2024-03-08T15:10:49;19.90;49.80
43665;DHT22;29263;48.172;11.484;2024-03-08T15:13:21;19.20;50.80
43665;DHT22;29263;48.172;11.484;2024-03-08T15:15:49;19.00;50.20
43665;DHT22;29263;48.172;11.484;2024-03-08T15:18:21;19.20;50.20
43665;DHT22;29263;48.172;11.484;2024-03-08T15:20:47;19.10;50.20
43665;DHT22;29263;48.172;11.484;2024-03-08T15:23:13;19.50;50.00
43665;DHT22;29263;48.172;11.484;2024-03-08T15:25:39;19.50;49.50
43665;DHT22;29263;48.172;11.484;2024-03-08T15:28:07;19.00;50.40
43665;DHT22;29263;48.172;11.484;2024-03-08T15:30:40;18.40;50.40
43665;DHT22;29263;48.172;11.484;2024-03-08T15:33:11;18.30;51.70